Bethel Airport Bethel US
ICAO: PABE
IATA:
Category: Medium
Scheduled Services:

Elevation: 126 ft
TransAlt. 18000 ft.

Airport Communications:
ATIS:119.8
ANCHORAGE CNTR:125.2
CTAF/BETHEL WX:118.7
KENAI RDO:122.65
GND:121.7
TWEB:114.1
NG OPS:124.65
TWR:118.7

PABE Zoom In..

Runways:

(A) RW 01L length 6400 ft width 150 ft
---- / hdg 9

(B) RW 01R length 4000 ft width 75 ft
---- / hdg 10

(C) RW 12 length 1858 ft width 75 ft
---- / hdg 114

(D) RW 19L length 4000 ft width 75 ft
---- / hdg 190

(E) RW 19R length 6400 ft width 150 ft
ILS 111.50 / hdg 189

(F) RW 30 length 1858 ft width 75 ft
---- / hdg 294

Location; PABE
Day. 11 / Time. 12.19 Zulu
* Altimeter: 29.97
* Temperature: 09° c. 48.2°f.
* Wind from: 300° Speed 05 kn.
Dewpoint: 09° c.
Visibility: 1 m.
Clouds: Clear (automated report).
Conditions: Mist.

PABE 111219Z AUTO 30005KT 1 1/2SM R19R/3000VP6000FT BR CLR 09/09 A2997 RMK AO2 T00890089 TSNO

Going to: --> -->


Wind From 300°
Speed 05 kn.

 
 
jpsmedia worldairports.se 2020   terms of use